sensor_id;sensor_type;location;lat;lon;timestamp;pressure;altitude;pressure_sealevel;temperature;humidity
71424;BME280;59240;51.370;-0.486;2024-01-30T00:00:29;102002.38;;;14.07;86.56
71424;BME280;59240;51.370;-0.486;2024-01-30T00:05:26;102004.13;;;14.05;86.60
71424;BME280;59240;51.370;-0.486;2024-01-30T00:10:23;101986.69;;;14.04;86.37
71424;BME280;59240;51.370;-0.486;2024-01-30T00:15:20;101992.94;;;13.97;86.46
71424;BME280;59240;51.370;-0.486;2024-01-30T00:20:17;101988.63;;;13.93;86.44
71424;BME280;59240;51.370;-0.486;2024-01-30T00:25:14;102001.63;;;14.01;86.06
71424;BME280;59240;51.370;-0.486;2024-01-30T00:30:11;101994.72;;;13.95;85.66
71424;BME280;59240;51.370;-0.486;2024-01-30T00:35:08;101980.03;;;13.85;85.44
71424;BME280;59240;51.370;-0.486;2024-01-30T00:40:07;102004.38;;;13.91;84.83
71424;BME280;59240;51.370;-0.486;2024-01-30T00:45:04;101981.91;;;13.77;84.41
71424;BME280;59240;51.370;-0.486;2024-01-30T00:50:01;102013.19;;;13.86;84.31
71424;BME280;59240;51.370;-0.486;2024-01-30T00:54:59;101980.88;;;13.85;83.87
71424;BME280;59240;51.370;-0.486;2024-01-30T00:59:57;101982.72;;;13.82;83.75
71424;BME280;59240;51.370;-0.486;2024-01-30T01:04:54;102002.88;;;13.77;83.39
71424;BME280;59240;51.370;-0.486;2024-01-30T01:09:50;102002.97;;;13.71;82.92
71424;BME280;59240;51.370;-0.486;2024-01-30T01:14:47;102011.84;;;13.60;81.64
71424;BME280;59240;51.370;-0.486;2024-01-30T01:19:44;102021.69;;;13.43;79.94
71424;BME280;59240;51.370;-0.486;2024-01-30T01:24:41;102005.28;;;13.30;78.65
71424;BME280;59240;51.370;-0.486;2024-01-30T01:29:38;102015.91;;;13.17;79.70
71424;BME280;59240;51.370;-0.486;2024-01-30T01:34:35;102002.22;;;12.96;79.20
71424;BME280;59240;51.370;-0.486;2024-01-30T01:39:31;102024.19;;;12.81;78.24
71424;BME280;59240;51.370;-0.486;2024-01-30T01:44:28;102020.72;;;12.79;78.38
71424;BME280;59240;51.370;-0.486;2024-01-30T01:49:27;101975.69;;;12.54;79.17
71424;BME280;59240;51.370;-0.486;2024-01-30T01:54:25;102001.75;;;12.60;79.76
71424;BME280;59240;51.370;-0.486;2024-01-30T01:59:23;102023.66;;;12.50;80.44
71424;BME280;59240;51.370;-0.486;2024-01-30T02:04:21;101980.44;;;12.14;81.07
71424;BME280;59240;51.370;-0.486;2024-01-30T02:09:18;102004.59;;;12.42;80.88
71424;BME280;59240;51.370;-0.486;2024-01-30T02:14:15;102023.78;;;12.38;81.66
71424;BME280;59240;51.370;-0.486;2024-01-30T02:19:12;102023.78;;;12.38;81.68
71424;BME280;59240;51.370;-0.486;2024-01-30T02:24:09;102016.88;;;12.31;81.97
71424;BME280;59240;51.370;-0.486;2024-01-30T02:29:07;102011.69;;;12.25;82.25
71424;BME280;59240;51.370;-0.486;2024-01-30T02:34:04;102006.53;;;12.19;82.08
71424;BME280;59240;51.370;-0.486;2024-01-30T02:39:01;101991.91;;;12.01;82.14
71424;BME280;59240;51.370;-0.486;2024-01-30T02:43:58;102018.03;;;12.01;82.20
71424;BME280;59240;51.370;-0.486;2024-01-30T02:48:55;102011.06;;;11.98;82.13
71424;BME280;59240;51.370;-0.486;2024-01-30T02:53:52;102025.03;;;11.93;82.50
71424;BME280;59240;51.370;-0.486;2024-01-30T02:58:49;102022.44;;;11.91;82.45
71424;BME280;59240;51.370;-0.486;2024-01-30T03:03:46;102050.31;;;11.89;82.78
71424;BME280;59240;51.370;-0.486;2024-01-30T03:08:43;102056.44;;;11.84;82.97
71424;BME280;59240;51.370;-0.486;2024-01-30T03:13:40;102032.06;;;11.83;83.38
71424;BME280;59240;51.370;-0.486;2024-01-30T03:18:37;102031.19;;;11.78;83.67
71424;BME280;59240;51.370;-0.486;2024-01-30T03:23:34;102040.78;;;11.77;83.45
71424;BME280;59240;51.370;-0.486;2024-01-30T03:28:32;102055.59;;;11.75;83.74
71424;BME280;59240;51.370;-0.486;2024-01-30T03:33:28;102036.50;;;11.66;83.57
71424;BME280;59240;51.370;-0.486;2024-01-30T03:38:25;102027.03;;;11.51;83.71
71424;BME280;59240;51.370;-0.486;2024-01-30T03:43:22;102042.56;;;11.66;84.17
71424;BME280;59240;51.370;-0.486;2024-01-30T03:48:20;102046.97;;;11.63;84.13
71424;BME280;59240;51.370;-0.486;2024-01-30T03:53:17;102009.66;;;11.48;84.29
71424;BME280;59240;51.370;-0.486;2024-01-30T03:58:14;102042.59;;;11.63;84.57
71424;BME280;59240;51.370;-0.486;2024-01-30T04:03:11;102009.69;;;11.41;85.35
71424;BME280;59240;51.370;-0.486;2024-01-30T04:08:09;102049.63;;;11.54;85.48
71424;BME280;59240;51.370;-0.486;2024-01-30T04:13:05;102043.53;;;11.55;85.73
71424;BME280;59240;51.370;-0.486;2024-01-30T04:18:07;102042.69;;;11.49;86.03
71424;BME280;59240;51.370;-0.486;2024-01-30T04:23:04;102040.97;;;11.45;86.26
71424;BME280;59240;51.370;-0.486;2024-01-30T04:28:01;102040.13;;;11.40;87.52
71424;BME280;59240;51.370;-0.486;2024-01-30T04:32:57;102046.25;;;11.39;87.03
71424;BME280;59240;51.370;-0.486;2024-01-30T04:37:54;102052.34;;;11.32;87.73
71424;BME280;59240;51.370;-0.486;2024-01-30T04:42:51;102060.16;;;11.32;89.17
71424;BME280;59240;51.370;-0.486;2024-01-30T04:47:48;102055.88;;;11.22;88.76
71424;BME280;59240;51.370;-0.486;2024-01-30T04:52:45;102085.34;;;11.42;88.49
71424;BME280;59240;51.370;-0.486;2024-01-30T04:57:41;102101.00;;;11.42;87.47
71424;BME280;59240;51.370;-0.486;2024-01-30T05:02:38;102072.41;;;11.21;85.88
71424;BME280;59240;51.370;-0.486;2024-01-30T05:07:36;102083.75;;;11.02;82.61
71424;BME280;59240;51.370;-0.486;2024-01-30T05:12:33;102143.66;;;11.29;83.14
71424;BME280;59240;51.370;-0.486;2024-01-30T05:17:29;102153.31;;;11.06;81.50
71424;BME280;59240;51.370;-0.486;2024-01-30T05:22:26;102155.06;;;10.91;81.91
71424;BME280;59240;51.370;-0.486;2024-01-30T05:27:23;102153.34;;;10.63;81.66
71424;BME280;59240;51.370;-0.486;2024-01-30T05:32:20;102171.56;;;10.61;82.19
71424;BME280;59240;51.370;-0.486;2024-01-30T05:37:17;102193.28;;;10.50;82.48
71424;BME280;59240;51.370;-0.486;2024-01-30T05:42:15;102187.22;;;10.43;82.60
71424;BME280;59240;51.370;-0.486;2024-01-30T05:47:13;102190.69;;;10.40;82.83
71424;BME280;59240;51.370;-0.486;2024-01-30T05:52:10;102210.63;;;10.26;83.48
71424;BME280;59240;51.370;-0.486;2024-01-30T05:57:07;102214.06;;;10.16;83.37
71424;BME280;59240;51.370;-0.486;2024-01-30T06:02:05;102176.63;;;9.86;83.09
71424;BME280;59240;51.370;-0.486;2024-01-30T06:07:02;102228.72;;;10.02;82.94
71424;BME280;59240;51.370;-0.486;2024-01-30T06:11:59;102227.84;;;9.94;82.35
71424;BME280;59240;51.370;-0.486;2024-01-30T06:16:56;102216.44;;;9.67;81.98
71424;BME280;59240;51.370;-0.486;2024-01-30T06:21:52;102253.88;;;9.94;82.08
71424;BME280;59240;51.370;-0.486;2024-01-30T06:26:50;102265.19;;;9.96;81.53
71424;BME280;59240;51.370;-0.486;2024-01-30T06:31:47;102273.81;;;9.95;81.58
71424;BME280;59240;51.370;-0.486;2024-01-30T06:36:43;102285.16;;;9.97;81.61
71424;BME280;59240;51.370;-0.486;2024-01-30T06:41:40;102304.22;;;9.96;81.39
71424;BME280;59240;51.370;-0.486;2024-01-30T06:46:38;102312.91;;;9.98;81.41
71424;BME280;59240;51.370;-0.486;2024-01-30T06:51:35;102319.84;;;9.99;81.06
71424;BME280;59240;51.370;-0.486;2024-01-30T06:56:31;102315.50;;;9.96;81.03
71424;BME280;59240;51.370;-0.486;2024-01-30T07:01:29;102338.06;;;9.96;80.34
71424;BME280;59240;51.370;-0.486;2024-01-30T07:06:26;102330.28;;;9.99;80.73
71424;BME280;59240;51.370;-0.486;2024-01-30T07:11:23;102346.75;;;9.98;80.71
71424;BME280;59240;51.370;-0.486;2024-01-30T07:16:20;102358.03;;;9.97;80.47
71424;BME280;59240;51.370;-0.486;2024-01-30T07:21:19;102359.78;;;9.98;80.35
71424;BME280;59240;51.370;-0.486;2024-01-30T07:26:18;102375.41;;;9.98;80.00
71424;BME280;59240;51.370;-0.486;2024-01-30T07:31:15;102383.16;;;9.95;78.95
71424;BME280;59240;51.370;-0.486;2024-01-30T07:36:12;102401.44;;;10.01;79.82
71424;BME280;59240;51.370;-0.486;2024-01-30T07:41:08;102385.72;;;9.85;79.30
71424;BME280;59240;51.370;-0.486;2024-01-30T07:46:06;102408.38;;;9.96;78.97
71424;BME280;59240;51.370;-0.486;2024-01-30T07:51:03;102430.97;;;10.03;78.86
71424;BME280;59240;51.370;-0.486;2024-01-30T07:56:00;102451.81;;;10.06;78.70
71424;BME280;59240;51.370;-0.486;2024-01-30T08:00:57;102467.44;;;10.04;77.18
71424;BME280;59240;51.370;-0.486;2024-01-30T08:05:56;102416.91;;;9.76;77.84
71424;BME280;59240;51.370;-0.486;2024-01-30T08:10:53;102474.38;;;10.07;77.71
71424;BME280;59240;51.370;-0.486;2024-01-30T08:15:50;102473.50;;;10.03;77.82
71424;BME280;59240;51.370;-0.486;2024-01-30T08:20:47;102453.41;;;9.84;77.16
71424;BME280;59240;51.370;-0.486;2024-01-30T08:25:44;102507.41;;;10.09;75.79
71424;BME280;59240;51.370;-0.486;2024-01-30T08:30:41;102480.34;;;9.94;76.97
71424;BME280;59240;51.370;-0.486;2024-01-30T08:35:37;102517.81;;;10.11;76.39
71424;BME280;59240;51.370;-0.486;2024-01-30T08:40:35;102516.09;;;10.11;76.90
71424;BME280;59240;51.370;-0.486;2024-01-30T08:45:32;102536.06;;;10.14;76.32
71424;BME280;59240;51.370;-0.486;2024-01-30T08:50:29;102539.53;;;10.13;75.13
71424;BME280;59240;51.370;-0.486;2024-01-30T08:55:26;102535.19;;;10.09;76.26
71424;BME280;59240;51.370;-0.486;2024-01-30T09:00:23;102559.56;;;10.20;75.88
71424;BME280;59240;51.370;-0.486;2024-01-30T09:05:20;102563.13;;;10.25;76.12
71424;BME280;59240;51.370;-0.486;2024-01-30T09:10:16;102572.66;;;10.28;74.79
71424;BME280;59240;51.370;-0.486;2024-01-30T09:15:16;102568.25;;;10.22;75.00
71424;BME280;59240;51.370;-0.486;2024-01-30T09:20:13;102573.63;;;10.37;75.34
71424;BME280;59240;51.370;-0.486;2024-01-30T09:25:10;102585.81;;;10.41;72.42
71424;BME280;59240;51.370;-0.486;2024-01-30T09:30:09;102596.31;;;10.51;74.59
71424;BME280;59240;51.370;-0.486;2024-01-30T09:35:06;102585.84;;;10.48;74.26
71424;BME280;59240;51.370;-0.486;2024-01-30T09:40:04;102610.31;;;10.68;72.89
71424;BME280;59240;51.370;-0.486;2024-01-30T09:45:05;102629.47;;;10.73;73.71
71424;BME280;59240;51.370;-0.486;2024-01-30T09:50:02;102627.69;;;10.69;73.84
71424;BME280;59240;51.370;-0.486;2024-01-30T09:55:00;102637.31;;;10.75;73.81
71424;BME280;59240;51.370;-0.486;2024-01-30T09:59:58;102645.13;;;10.73;73.48
71424;BME280;59240;51.370;-0.486;2024-01-30T10:04:55;102658.09;;;10.67;72.33
71424;BME280;59240;51.370;-0.486;2024-01-30T10:09:55;102660.72;;;10.70;72.55
71424;BME280;59240;51.370;-0.486;2024-01-30T10:14:53;102675.53;;;10.73;73.39
71424;BME280;59240;51.370;-0.486;2024-01-30T10:19:53;102685.09;;;10.72;73.14
71424;BME280;59240;51.370;-0.486;2024-01-30T10:24:51;102649.25;;;10.47;73.34
71424;BME280;59240;51.370;-0.486;2024-01-30T10:29:48;102667.56;;;10.53;72.38
71424;BME280;59240;51.370;-0.486;2024-01-30T10:34:47;102705.03;;;10.65;71.56
71424;BME280;59240;51.370;-0.486;2024-01-30T10:39:45;102725.06;;;10.71;72.17
71424;BME280;59240;51.370;-0.486;2024-01-30T10:49:43;102742.41;;;10.69;71.05
71424;BME280;59240;51.370;-0.486;2024-01-30T10:54:40;102754.56;;;10.70;71.64
71424;BME280;59240;51.370;-0.486;2024-01-30T10:59:40;102765.91;;;10.71;71.57
71424;BME280;59240;51.370;-0.486;2024-01-30T11:04:38;102774.53;;;10.69;71.27
71424;BME280;59240;51.370;-0.486;2024-01-30T11:09:38;102771.94;;;10.68;71.15
71424;BME280;59240;51.370;-0.486;2024-01-30T11:14:37;102768.47;;;10.69;71.01
71424;BME280;59240;51.370;-0.486;2024-01-30T11:19:36;102777.09;;;10.62;71.06
71424;BME280;59240;51.370;-0.486;2024-01-30T11:24:40;102788.34;;;10.59;70.39
71424;BME280;59240;51.370;-0.486;2024-01-30T11:29:40;102797.94;;;10.62;70.07
71424;BME280;59240;51.370;-0.486;2024-01-30T11:34:41;102790.03;;;10.54;70.15
71424;BME280;59240;51.370;-0.486;2024-01-30T11:39:38;102779.47;;;10.42;70.63
71424;BME280;59240;51.370;-0.486;2024-01-30T11:44:38;102797.88;;;10.56;70.59
71424;BME280;59240;51.370;-0.486;2024-01-30T11:49:34;102793.41;;;10.44;70.01
71424;BME280;59240;51.370;-0.486;2024-01-30T11:54:31;102805.66;;;10.53;69.77
71424;BME280;59240;51.370;-0.486;2024-01-30T11:59:28;102803.84;;;10.46;69.69
71424;BME280;59240;51.370;-0.486;2024-01-30T12:04:28;102789.09;;;10.46;69.79
71424;BME280;59240;51.370;-0.486;2024-01-30T12:09:26;102822.31;;;10.64;69.98
71424;BME280;59240;51.370;-0.486;2024-01-30T12:14:24;102776.88;;;10.42;69.93
71424;BME280;59240;51.370;-0.486;2024-01-30T12:19:23;102833.69;;;10.77;70.17
71424;BME280;59240;51.370;-0.486;2024-01-30T12:24:21;102838.97;;;10.81;70.14
71424;BME280;59240;51.370;-0.486;2024-01-30T12:29:22;102820.56;;;10.66;69.53
71424;BME280;59240;51.370;-0.486;2024-01-30T12:34:18;102841.50;;;10.75;68.98
71424;BME280;59240;51.370;-0.486;2024-01-30T12:39:17;102813.50;;;10.56;69.70
71424;BME280;59240;51.370;-0.486;2024-01-30T12:44:15;102854.53;;;10.72;68.95
71424;BME280;59240;51.370;-0.486;2024-01-30T12:49:11;102835.13;;;10.49;68.84
71424;BME280;59240;51.370;-0.486;2024-01-30T12:54:09;102866.56;;;10.59;67.79
71424;BME280;59240;51.370;-0.486;2024-01-30T12:59:06;102882.03;;;10.47;67.64
71424;BME280;59240;51.370;-0.486;2024-01-30T13:04:03;102854.94;;;10.31;67.81
71424;BME280;59240;51.370;-0.486;2024-01-30T13:09:00;102882.91;;;10.48;68.02
71424;BME280;59240;51.370;-0.486;2024-01-30T13:13:57;102882.03;;;10.46;67.70
71424;BME280;59240;51.370;-0.486;2024-01-30T13:18:54;102882.91;;;10.48;68.22
71424;BME280;59240;51.370;-0.486;2024-01-30T13:23:52;102895.00;;;10.43;68.13
71424;BME280;59240;51.370;-0.486;2024-01-30T13:28:50;102897.59;;;10.39;67.50
71424;BME280;59240;51.370;-0.486;2024-01-30T13:33:47;102903.66;;;10.38;67.53
71424;BME280;59240;51.370;-0.486;2024-01-30T13:38:47;102912.28;;;10.34;65.81
71424;BME280;59240;51.370;-0.486;2024-01-30T13:43:44;102896.53;;;10.25;67.60
71424;BME280;59240;51.370;-0.486;2024-01-30T13:48:41;102905.31;;;10.33;67.43
71424;BME280;59240;51.370;-0.486;2024-01-30T13:53:38;102912.34;;;10.40;67.74
71424;BME280;59240;51.370;-0.486;2024-01-30T13:58:35;102889.66;;;10.30;67.94
71424;BME280;59240;51.370;-0.486;2024-01-30T14:03:32;102895.84;;;10.41;67.65
71424;BME280;59240;51.370;-0.486;2024-01-30T14:08:29;102924.78;;;10.63;66.89
71424;BME280;59240;51.370;-0.486;2024-01-30T14:13:26;102924.88;;;10.69;67.01
71424;BME280;59240;51.370;-0.486;2024-01-30T14:18:23;102938.72;;;10.65;65.74
71424;BME280;59240;51.370;-0.486;2024-01-30T14:23:22;102952.81;;;10.78;65.56
71424;BME280;59240;51.370;-0.486;2024-01-30T14:28:18;102923.97;;;10.65;65.53
71424;BME280;59240;51.370;-0.486;2024-01-30T14:33:15;102944.03;;;10.74;64.21
71424;BME280;59240;51.370;-0.486;2024-01-30T14:38:13;102946.66;;;10.74;65.32
71424;BME280;59240;51.370;-0.486;2024-01-30T14:43:10;102950.94;;;10.69;64.07
71424;BME280;59240;51.370;-0.486;2024-01-30T14:48:07;102934.31;;;10.59;65.10
71424;BME280;59240;51.370;-0.486;2024-01-30T14:53:04;102940.38;;;10.57;65.16
71424;BME280;59240;51.370;-0.486;2024-01-30T14:58:00;102960.50;;;10.70;65.33
71424;BME280;59240;51.370;-0.486;2024-01-30T15:02:59;102967.53;;;10.77;65.61
71424;BME280;59240;51.370;-0.486;2024-01-30T15:07:55;102970.22;;;10.83;65.40
71424;BME280;59240;51.370;-0.486;2024-01-30T15:12:52;102946.56;;;10.65;64.62
71424;BME280;59240;51.370;-0.486;2024-01-30T15:17:49;102977.16;;;10.80;65.24
71424;BME280;59240;51.370;-0.486;2024-01-30T15:22:46;102991.06;;;10.80;64.18
71424;BME280;59240;51.370;-0.486;2024-01-30T15:27:44;102997.94;;;10.75;65.24
71424;BME280;59240;51.370;-0.486;2024-01-30T15:32:44;102997.91;;;10.74;65.56
71424;BME280;59240;51.370;-0.486;2024-01-30T15:37:41;102978.63;;;10.58;65.91
71424;BME280;59240;51.370;-0.486;2024-01-30T15:42:38;103006.53;;;10.68;65.88
71424;BME280;59240;51.370;-0.486;2024-01-30T15:47:35;103002.19;;;10.68;65.77
71424;BME280;59240;51.370;-0.486;2024-01-30T15:52:33;103003.84;;;10.63;66.01
71424;BME280;59240;51.370;-0.486;2024-01-30T15:57:30;103022.09;;;10.62;66.02
71424;BME280;59240;51.370;-0.486;2024-01-30T16:02:27;103035.09;;;10.60;66.15
71424;BME280;59240;51.370;-0.486;2024-01-30T16:07:25;103029.81;;;10.56;66.16
71424;BME280;59240;51.370;-0.486;2024-01-30T16:12:22;103037.59;;;10.53;66.22
71424;BME280;59240;51.370;-0.486;2024-01-30T16:17:19;103046.19;;;10.46;66.22
71424;BME280;59240;51.370;-0.486;2024-01-30T16:22:16;103034.69;;;10.30;66.45
71424;BME280;59240;51.370;-0.486;2024-01-30T16:27:13;103058.34;;;10.44;66.59
71424;BME280;59240;51.370;-0.486;2024-01-30T16:32:10;103021.44;;;10.19;66.51
71424;BME280;59240;51.370;-0.486;2024-01-30T16:37:07;103071.22;;;10.36;66.44
71424;BME280;59240;51.370;-0.486;2024-01-30T16:42:04;103051.13;;;10.27;66.77
71424;BME280;59240;51.370;-0.486;2024-01-30T16:47:01;103072.03;;;10.30;66.80
71424;BME280;59240;51.370;-0.486;2024-01-30T16:51:58;103059.78;;;10.26;66.95
71424;BME280;59240;51.370;-0.486;2024-01-30T16:56:58;103071.97;;;10.29;67.01
71424;BME280;59240;51.370;-0.486;2024-01-30T17:01:55;103063.25;;;10.25;67.29
71424;BME280;59240;51.370;-0.486;2024-01-30T17:06:53;103067.34;;;10.12;67.23
71424;BME280;59240;51.370;-0.486;2024-01-30T17:11:50;103079.59;;;10.17;67.28
71424;BME280;59240;51.370;-0.486;2024-01-30T17:16:47;103082.22;;;10.18;67.60
71424;BME280;59240;51.370;-0.486;2024-01-30T17:21:52;103085.69;;;10.20;67.74
71424;BME280;59240;51.370;-0.486;2024-01-30T17:26:49;103071.69;;;10.13;67.76
71424;BME280;59240;51.370;-0.486;2024-01-30T17:31:46;103089.13;;;10.16;67.94
71424;BME280;59240;51.370;-0.486;2024-01-30T17:36:44;103106.44;;;10.14;68.07
71424;BME280;59240;51.370;-0.486;2024-01-30T17:41:41;103116.91;;;10.17;67.99
71424;BME280;59240;51.370;-0.486;2024-01-30T17:46:38;103110.78;;;10.15;68.18
71424;BME280;59240;51.370;-0.486;2024-01-30T17:51:41;103091.38;;;9.96;68.16
71424;BME280;59240;51.370;-0.486;2024-01-30T17:56:39;103117.47;;;10.01;68.19
71424;BME280;59240;51.370;-0.486;2024-01-30T18:01:36;103146.34;;;10.13;68.41
71424;BME280;59240;51.370;-0.486;2024-01-30T18:06:33;103113.00;;;9.94;68.44
71424;BME280;59240;51.370;-0.486;2024-01-30T18:11:30;103154.16;;;10.11;68.60
71424;BME280;59240;51.370;-0.486;2024-01-30T18:16:27;103166.31;;;10.12;68.64
71424;BME280;59240;51.370;-0.486;2024-01-30T18:21:24;103147.75;;;9.94;68.87
71424;BME280;59240;51.370;-0.486;2024-01-30T18:26:21;103161.69;;;9.96;69.10
71424;BME280;59240;51.370;-0.486;2024-01-30T18:31:17;103200.03;;;10.05;69.22
71424;BME280;59240;51.370;-0.486;2024-01-30T18:36:14;103201.63;;;9.97;69.48
71424;BME280;59240;51.370;-0.486;2024-01-30T18:41:11;103200.78;;;9.98;69.38
71424;BME280;59240;51.370;-0.486;2024-01-30T18:46:08;103211.19;;;9.98;69.73
71424;BME280;59240;51.370;-0.486;2024-01-30T18:51:07;103205.97;;;9.96;69.83
71424;BME280;59240;51.370;-0.486;2024-01-30T18:56:04;103220.72;;;9.96;69.81
71424;BME280;59240;51.370;-0.486;2024-01-30T19:01:02;103224.13;;;9.95;69.61
71424;BME280;59240;51.370;-0.486;2024-01-30T19:05:59;103211.91;;;9.91;69.87
71424;BME280;59240;51.370;-0.486;2024-01-30T19:10:57;103201.25;;;9.78;69.97
71424;BME280;59240;51.370;-0.486;2024-01-30T19:15:56;103211.63;;;9.75;69.99
71424;BME280;59240;51.370;-0.486;2024-01-30T19:20:53;103251.81;;;9.90;70.20
71424;BME280;59240;51.370;-0.486;2024-01-30T19:25:50;103270.06;;;9.91;70.32
71424;BME280;59240;51.370;-0.486;2024-01-30T19:30:47;103260.41;;;9.85;70.40
71424;BME280;59240;51.370;-0.486;2024-01-30T19:35:44;103274.31;;;9.86;70.39
71424;BME280;59240;51.370;-0.486;2024-01-30T19:40:42;103279.47;;;9.84;70.51
71424;BME280;59240;51.370;-0.486;2024-01-30T19:45:39;103288.19;;;9.86;70.60
71424;BME280;59240;51.370;-0.486;2024-01-30T19:50:35;103264.41;;;9.68;70.77
71424;BME280;59240;51.370;-0.486;2024-01-30T19:55:32;103290.66;;;9.80;70.76
71424;BME280;59240;51.370;-0.486;2024-01-30T20:00:29;103274.75;;;9.67;70.91
71424;BME280;59240;51.370;-0.486;2024-01-30T20:05:26;103279.75;;;9.57;70.77
71424;BME280;59240;51.370;-0.486;2024-01-30T20:10:23;103337.59;;;9.83;71.01
71424;BME280;59240;51.370;-0.486;2024-01-30T20:15:20;103345.41;;;9.83;70.94
71424;BME280;59240;51.370;-0.486;2024-01-30T20:20:17;103356.72;;;9.84;71.02
71424;BME280;59240;51.370;-0.486;2024-01-30T20:25:14;103354.97;;;9.84;71.06
71424;BME280;59240;51.370;-0.486;2024-01-30T20:30:16;103346.22;;;9.81;71.08
71424;BME280;59240;51.370;-0.486;2024-01-30T20:35:14;103347.88;;;9.77;70.93
71424;BME280;59240;51.370;-0.486;2024-01-30T20:40:11;103323.28;;;9.63;70.99
71424;BME280;59240;51.370;-0.486;2024-01-30T20:45:08;103348.72;;;9.76;71.03
71424;BME280;59240;51.370;-0.486;2024-01-30T20:50:06;103352.25;;;9.78;70.99
71424;BME280;59240;51.370;-0.486;2024-01-30T20:55:03;103349.50;;;9.72;70.52
71424;BME280;59240;51.370;-0.486;2024-01-30T21:00:00;103356.38;;;9.69;70.50
71424;BME280;59240;51.370;-0.486;2024-01-30T21:04:58;103359.84;;;9.69;70.20
71424;BME280;59240;51.370;-0.486;2024-01-30T21:09:55;103368.53;;;9.70;70.29
71424;BME280;59240;51.370;-0.486;2024-01-30T21:14:52;103371.16;;;9.71;70.33
71424;BME280;59240;51.370;-0.486;2024-01-30T21:19:50;103357.94;;;9.62;70.33
71424;BME280;59240;51.370;-0.486;2024-01-30T21:24:46;103365.91;;;9.68;70.41
71424;BME280;59240;51.370;-0.486;2024-01-30T21:29:43;103351.06;;;9.66;69.89
71424;BME280;59240;51.370;-0.486;2024-01-30T21:34:40;103366.69;;;9.66;69.72
71424;BME280;59240;51.370;-0.486;2024-01-30T21:39:37;103333.34;;;9.49;69.65
71424;BME280;59240;51.370;-0.486;2024-01-30T21:44:36;103355.41;;;9.65;69.48
71424;BME280;59240;51.370;-0.486;2024-01-30T21:49:33;103351.94;;;9.66;69.63
71424;BME280;59240;51.370;-0.486;2024-01-30T21:54:31;103350.88;;;9.56;69.89
71424;BME280;59240;51.370;-0.486;2024-01-30T21:59:27;103343.09;;;9.58;69.79
71424;BME280;59240;51.370;-0.486;2024-01-30T22:04:25;103354.53;;;9.65;69.72
71424;BME280;59240;51.370;-0.486;2024-01-30T22:09:21;103342.38;;;9.65;69.59
71424;BME280;59240;51.370;-0.486;2024-01-30T22:14:19;103307.25;;;9.46;69.84
71424;BME280;59240;51.370;-0.486;2024-01-30T22:19:16;103329.22;;;9.59;69.89
71424;BME280;59240;51.370;-0.486;2024-01-30T22:24:13;103320.47;;;9.54;69.90
71424;BME280;59240;51.370;-0.486;2024-01-30T22:29:10;103321.38;;;9.56;69.89
71424;BME280;59240;51.370;-0.486;2024-01-30T22:34:07;103310.81;;;9.50;69.67
71424;BME280;59240;51.370;-0.486;2024-01-30T22:39:04;103316.03;;;9.50;69.57
71424;BME280;59240;51.370;-0.486;2024-01-30T22:44:01;103328.22;;;9.52;69.66
71424;BME280;59240;51.370;-0.486;2024-01-30T22:54:49;103335.78;;;9.42;69.50
71424;BME280;59240;51.370;-0.486;2024-01-30T22:59:46;103339.25;;;9.41;69.67
71424;BME280;59240;51.370;-0.486;2024-01-30T23:04:43;103325.03;;;9.26;69.61
71424;BME280;59240;51.370;-0.486;2024-01-30T23:09:40;103365.31;;;9.44;69.52
71424;BME280;59240;51.370;-0.486;2024-01-30T23:14:42;103340.69;;;9.29;69.12
71424;BME280;59240;51.370;-0.486;2024-01-30T23:19:42;103354.91;;;9.44;69.34
71424;BME280;59240;51.370;-0.486;2024-01-30T23:24:39;103340.75;;;9.32;69.16
71424;BME280;59240;51.370;-0.486;2024-01-30T23:29:35;103337.19;;;9.27;69.27
71424;BME280;59240;51.370;-0.486;2024-01-30T23:34:32;103339.69;;;9.24;69.51
71424;BME280;59240;51.370;-0.486;2024-01-30T23:39:32;103370.38;;;9.38;69.39
71424;BME280;59240;51.370;-0.486;2024-01-30T23:44:30;103375.53;;;9.36;69.64
71424;BME280;59240;51.370;-0.486;2024-01-30T23:49:27;103380.78;;;9.38;69.67
71424;BME280;59240;51.370;-0.486;2024-01-30T23:54:24;103385.09;;;9.37;69.75
71424;BME280;59240;51.370;-0.486;2024-01-30T23:59:21;103353.41;;;9.19;69.97
